Praia Do Neiva — CUBL7 — position and weather

sailwx.info

Track history (hours):
 
Tides and Currents Weather Stations Pressure Air Temp Water Temp Dewpoint Dewpoint Depression Visibility Wind Speed Wind Dir Waves Ship Positions

Praia Do Neiva

Last reported at 2018-Apr-24 13:25 UTC. Time now 2018-Apr-26 15:36 UTC.
Position N 41°11' W 008°42'.

Length 16 m.

Type: Fishing. MMSI: 263214000.

Date/timePositionNaut miles runAvg speedWind from/ knotsBaromVisibWave heightAir tempDewpointWater temp
2018-Apr-24 13:25N 41°11' W 008°42'0 0.2
2018-Apr-24 13:00N 41°11' W 008°42'3 5.3
2018-Apr-24 12:30N 41°09' W 008°44'1 0.1
2018-Apr-23 18:40N 41°08' W 008°44'1 7.8
2018-Apr-23 18:30N 41°09' W 008°43'2 0.8
2018-Apr-23 15:40N 41°11' W 008°42'0 0.0
2018-Apr-23 15:30N 41°11' W 008°42'2 3.7
2018-Apr-23 15:00N 41°09' W 008°43'2 0.1
2018-Apr-22 20:08N 41°08' W 008°45'1 8.3
2018-Apr-22 19:59N 41°09' W 008°44'  
2018-Apr-20 14:31N 41°11' W 008°42'0 0.0
2018-Apr-20 14:30N 41°11' W 008°42'0 0.0
2018-Apr-20 14:00N 41°11' W 008°42'0 0.2
2018-Apr-20 13:30N 41°11' W 008°42'4 7.2
2018-Apr-20 13:01N 41°08' W 008°45'1 0.1
2018-Apr-19 19:50N 41°07' W 008°44'3 8.2
2018-Apr-19 19:30N 41°10' W 008°43'1 2.3
2018-Apr-19 19:00N 41°11' W 008°42'0 0.0
2018-Apr-19 18:30N 41°11' W 008°42'0 0.0
2018-Apr-19 18:00N 41°11' W 008°42'0 0.0
2018-Apr-19 17:30N 41°11' W 008°42'0 0.0
2018-Apr-19 17:00N 41°11' W 008°42'0 0.0
2018-Apr-19 16:30N 41°11' W 008°42'0 0.0
2018-Apr-19 16:00N 41°11' W 008°42'0 0.0
2018-Apr-19 15:30N 41°11' W 008°42'2 3.4
2018-Apr-19 15:00N 41°09' W 008°43'2 0.1
2018-Apr-18 18:21N 41°08' W 008°45'2 7.3
2018-Apr-18 18:00N 41°10' W 008°43'2 3.1
2018-Apr-18 17:30N 41°11' W 008°42'0 0.0
2018-Apr-18 17:00N 41°11' W 008°42'0 0.0
2018-Apr-18 16:31N 41°11' W 008°42'0 0.0
2018-Apr-18 16:00N 41°11' W 008°42'0 0.0
2018-Apr-18 15:29N 41°11' W 008°42'0 0.0
2018-Apr-18 15:01N 41°11' W 008°42'0 0.0
2018-Apr-18 14:30N 41°11' W 008°42'0 0.0
2018-Apr-18 14:00N 41°11' W 008°42'0 0.0
2018-Apr-18 13:31N 41°11' W 008°42'0 0.0
2018-Apr-18 13:01N 41°11' W 008°42'2 3.3
2018-Apr-18 12:31N 41°10' W 008°43'4 7.5
2018-Apr-18 12:00N 41°07' W 008°46'1 0.1
2018-Apr-17 18:52N 41°07' W 008°45'3 7.0
2018-Apr-17 18:30N 41°09' W 008°43'2 0.3
2018-Apr-17 13:31N 41°11' W 008°42'0 0.0
2018-Apr-17 13:29N 41°11' W 008°42'0 0.5
2018-Apr-17 13:00N 41°11' W 008°42'4 0.2
2018-Apr-16 19:31N 41°07' W 008°45'2 7.1
2018-Apr-16 19:17N 41°09' W 008°44'2 7.1
2018-Apr-16 19:00N 41°10' W 008°43'1 1.6
2018-Apr-16 18:30N 41°11' W 008°42'0 0.0
2018-Apr-16 18:00N 41°11' W 008°42'0 0.0
2018-Apr-16 17:30N 41°11' W 008°42'0 0.0
2018-Apr-16 17:00N 41°11' W 008°42'0 0.0
2018-Apr-16 16:30N 41°11' W 008°42'0 0.0
2018-Apr-16 16:00N 41°11' W 008°42'0 0.0
2018-Apr-16 15:30N 41°11' W 008°42'3 4.9
2018-Apr-16 14:59N 41°09' W 008°44'1 0.1
2018-Apr-15 20:46N 41°08' W 008°45'2 6.9
2018-Apr-15 20:30N 41°09' W 008°43'  
Track history (hours):
 
Tides and Currents Weather Stations Pressure Air Temp Water Temp Dewpoint Dewpoint Depression Visibility Wind Speed Wind Dir Waves Ship Positions

Praia Do Neiva

Last reported at 2018-Apr-24 13:25 UTC. Time now 2018-Apr-26 15:36 UTC.
Position N 41°11' W 008°42'.

Length 16 m.

Type: Fishing. MMSI: 263214000.

Date/timePositionNaut miles runAvg speedWind from/ knotsBaromVisibWave heightAir tempDewpointWater temp
2018-Apr-24 13:25N 41°11' W 008°42'0 0.2
2018-Apr-24 13:00N 41°11' W 008°42'3 5.3
2018-Apr-24 12:30N 41°09' W 008°44'1 0.1
2018-Apr-23 18:40N 41°08' W 008°44'1 7.8
2018-Apr-23 18:30N 41°09' W 008°43'2 0.8
2018-Apr-23 15:40N 41°11' W 008°42'0 0.0
2018-Apr-23 15:30N 41°11' W 008°42'2 3.7
2018-Apr-23 15:00N 41°09' W 008°43'2 0.1
2018-Apr-22 20:08N 41°08' W 008°45'1 8.3
2018-Apr-22 19:59N 41°09' W 008°44'  
2018-Apr-20 14:31N 41°11' W 008°42'0 0.0
2018-Apr-20 14:30N 41°11' W 008°42'0 0.0
2018-Apr-20 14:00N 41°11' W 008°42'0 0.2
2018-Apr-20 13:30N 41°11' W 008°42'4 7.2
2018-Apr-20 13:01N 41°08' W 008°45'1 0.1
2018-Apr-19 19:50N 41°07' W 008°44'3 8.2
2018-Apr-19 19:30N 41°10' W 008°43'1 2.3
2018-Apr-19 19:00N 41°11' W 008°42'0 0.0
2018-Apr-19 18:30N 41°11' W 008°42'0 0.0
2018-Apr-19 18:00N 41°11' W 008°42'0 0.0
2018-Apr-19 17:30N 41°11' W 008°42'0 0.0
2018-Apr-19 17:00N 41°11' W 008°42'0 0.0
2018-Apr-19 16:30N 41°11' W 008°42'0 0.0
2018-Apr-19 16:00N 41°11' W 008°42'0 0.0
2018-Apr-19 15:30N 41°11' W 008°42'2 3.4
2018-Apr-19 15:00N 41°09' W 008°43'2 0.1
2018-Apr-18 18:21N 41°08' W 008°45'2 7.3
2018-Apr-18 18:00N 41°10' W 008°43'2 3.1
2018-Apr-18 17:30N 41°11' W 008°42'0 0.0
2018-Apr-18 17:00N 41°11' W 008°42'0 0.0
2018-Apr-18 16:31N 41°11' W 008°42'0 0.0
2018-Apr-18 16:00N 41°11' W 008°42'0 0.0
2018-Apr-18 15:29N 41°11' W 008°42'0 0.0
2018-Apr-18 15:01N 41°11' W 008°42'0 0.0
2018-Apr-18 14:30N 41°11' W 008°42'0 0.0
2018-Apr-18 14:00N 41°11' W 008°42'0 0.0
2018-Apr-18 13:31N 41°11' W 008°42'0 0.0
2018-Apr-18 13:01N 41°11' W 008°42'2 3.3
2018-Apr-18 12:31N 41°10' W 008°43'4 7.5
2018-Apr-18 12:00N 41°07' W 008°46'1 0.1
2018-Apr-17 18:52N 41°07' W 008°45'3 7.0
2018-Apr-17 18:30N 41°09' W 008°43'2 0.3
2018-Apr-17 13:31N 41°11' W 008°42'0 0.0
2018-Apr-17 13:29N 41°11' W 008°42'0 0.5
2018-Apr-17 13:00N 41°11' W 008°42'4 0.2
2018-Apr-16 19:31N 41°07' W 008°45'2 7.1
2018-Apr-16 19:17N 41°09' W 008°44'2 7.1
2018-Apr-16 19:00N 41°10' W 008°43'1 1.6
2018-Apr-16 18:30N 41°11' W 008°42'0 0.0
2018-Apr-16 18:00N 41°11' W 008°42'0 0.0
2018-Apr-16 17:30N 41°11' W 008°42'0 0.0
2018-Apr-16 17:00N 41°11' W 008°42'0 0.0
2018-Apr-16 16:30N 41°11' W 008°42'0 0.0
2018-Apr-16 16:00N 41°11' W 008°42'0 0.0
2018-Apr-16 15:30N 41°11' W 008°42'3 4.9
2018-Apr-16 14:59N 41°09' W 008°44'1 0.1
2018-Apr-15 20:46N 41°08' W 008°45'2 6.9
2018-Apr-15 20:30N 41°09' W 008°43'  

Dump ship's entire track history